sensor_id;sensor_type;location;lat;lon;timestamp;P1;durP1;ratioP1;P2;durP2;ratioP2
21438;SDS011;10880;50.302;18.736;2023-02-13T00:00:35;55.80;;;24.83;;
21438;SDS011;10880;50.302;18.736;2023-02-13T00:03:02;65.80;;;27.87;;
21438;SDS011;10880;50.302;18.736;2023-02-13T00:05:29;59.37;;;23.87;;
21438;SDS011;10880;50.302;18.736;2023-02-13T00:07:56;56.27;;;22.73;;
21438;SDS011;10880;50.302;18.736;2023-02-13T00:10:25;84.73;;;34.20;;
21438;SDS011;10880;50.302;18.736;2023-02-13T00:12:56;97.40;;;39.57;;
21438;SDS011;10880;50.302;18.736;2023-02-13T00:15:25;120.33;;;47.50;;
21438;SDS011;10880;50.302;18.736;2023-02-13T00:17:52;131.53;;;49.80;;
21438;SDS011;10880;50.302;18.736;2023-02-13T00:20:18;126.43;;;49.33;;
21438;SDS011;10880;50.302;18.736;2023-02-13T00:22:45;116.47;;;46.17;;
21438;SDS011;10880;50.302;18.736;2023-02-13T00:25:14;96.60;;;40.20;;
21438;SDS011;10880;50.302;18.736;2023-02-13T00:27:41;96.97;;;38.03;;
21438;SDS011;10880;50.302;18.736;2023-02-13T00:30:07;76.83;;;31.13;;
21438;SDS011;10880;50.302;18.736;2023-02-13T00:32:35;82.20;;;33.93;;
21438;SDS011;10880;50.302;18.736;2023-02-13T00:35:02;61.50;;;25.83;;
21438;SDS011;10880;50.302;18.736;2023-02-13T00:37:29;77.60;;;30.10;;
21438;SDS011;10880;50.302;18.736;2023-02-13T00:39:56;58.53;;;24.53;;
21438;SDS011;10880;50.302;18.736;2023-02-13T00:42:22;44.53;;;18.43;;
21438;SDS011;10880;50.302;18.736;2023-02-13T00:44:51;37.57;;;16.50;;
21438;SDS011;10880;50.302;18.736;2023-02-13T00:47:18;32.67;;;14.60;;
21438;SDS011;10880;50.302;18.736;2023-02-13T00:49:48;31.03;;;13.30;;
21438;SDS011;10880;50.302;18.736;2023-02-13T00:52:15;37.37;;;16.87;;
21438;SDS011;10880;50.302;18.736;2023-02-13T00:54:45;44.47;;;19.40;;
21438;SDS011;10880;50.302;18.736;2023-02-13T00:57:12;48.00;;;19.13;;
21438;SDS011;10880;50.302;18.736;2023-02-13T00:59:41;43.33;;;19.63;;
21438;SDS011;10880;50.302;18.736;2023-02-13T01:02:07;33.53;;;15.07;;
21438;SDS011;10880;50.302;18.736;2023-02-13T01:04:34;27.47;;;13.10;;
21438;SDS011;10880;50.302;18.736;2023-02-13T01:07:01;30.10;;;13.70;;
21438;SDS011;10880;50.302;18.736;2023-02-13T01:09:32;31.70;;;15.10;;
21438;SDS011;10880;50.302;18.736;2023-02-13T01:11:59;27.50;;;12.70;;
21438;SDS011;10880;50.302;18.736;2023-02-13T01:14:25;50.33;;;20.47;;
21438;SDS011;10880;50.302;18.736;2023-02-13T01:16:52;43.97;;;18.63;;
21438;SDS011;10880;50.302;18.736;2023-02-13T01:19:18;37.27;;;16.20;;
21438;SDS011;10880;50.302;18.736;2023-02-13T01:21:45;31.83;;;13.37;;
21438;SDS011;10880;50.302;18.736;2023-02-13T01:24:12;36.07;;;15.33;;
21438;SDS011;10880;50.302;18.736;2023-02-13T01:26:38;26.10;;;12.20;;
21438;SDS011;10880;50.302;18.736;2023-02-13T01:29:05;25.17;;;11.87;;
21438;SDS011;10880;50.302;18.736;2023-02-13T01:31:32;22.70;;;10.83;;
21438;SDS011;10880;50.302;18.736;2023-02-13T01:34:01;23.40;;;10.97;;
21438;SDS011;10880;50.302;18.736;2023-02-13T01:36:27;26.67;;;11.73;;
21438;SDS011;10880;50.302;18.736;2023-02-13T01:38:55;19.70;;;9.50;;
21438;SDS011;10880;50.302;18.736;2023-02-13T01:41:23;22.37;;;9.47;;
21438;SDS011;10880;50.302;18.736;2023-02-13T01:43:52;27.33;;;11.50;;
21438;SDS011;10880;50.302;18.736;2023-02-13T01:46:30;26.10;;;10.93;;
21438;SDS011;10880;50.302;18.736;2023-02-13T01:49:14;29.57;;;14.37;;
21438;SDS011;10880;50.302;18.736;2023-02-13T01:51:48;22.07;;;10.37;;
21438;SDS011;10880;50.302;18.736;2023-02-13T01:54:23;23.20;;;10.63;;
21438;SDS011;10880;50.302;18.736;2023-02-13T01:56:58;23.80;;;9.87;;
21438;SDS011;10880;50.302;18.736;2023-02-13T01:59:30;26.43;;;10.53;;
21438;SDS011;10880;50.302;18.736;2023-02-13T02:02:19;20.50;;;9.97;;
21438;SDS011;10880;50.302;18.736;2023-02-13T02:04:49;18.83;;;9.13;;
21438;SDS011;10880;50.302;18.736;2023-02-13T02:07:20;21.50;;;10.60;;
21438;SDS011;10880;50.302;18.736;2023-02-13T02:09:53;16.63;;;8.50;;
21438;SDS011;10880;50.302;18.736;2023-02-13T02:12:28;23.17;;;10.40;;
21438;SDS011;10880;50.302;18.736;2023-02-13T02:15:09;19.67;;;8.97;;
21438;SDS011;10880;50.302;18.736;2023-02-13T02:17:37;19.13;;;9.03;;
21438;SDS011;10880;50.302;18.736;2023-02-13T02:29:16;22.13;;;8.80;;
21438;SDS011;10880;50.302;18.736;2023-02-13T02:35:12;20.03;;;8.73;;
21438;SDS011;10880;50.302;18.736;2023-02-13T02:40:39;23.67;;;9.50;;
21438;SDS011;10880;50.302;18.736;2023-02-13T02:49:06;19.80;;;8.10;;
21438;SDS011;10880;50.302;18.736;2023-02-13T02:54:36;21.73;;;9.30;;
21438;SDS011;10880;50.302;18.736;2023-02-13T03:01:10;18.30;;;8.53;;
21438;SDS011;10880;50.302;18.736;2023-02-13T03:04:01;19.77;;;8.53;;
21438;SDS011;10880;50.302;18.736;2023-02-13T03:06:52;15.17;;;7.47;;
21438;SDS011;10880;50.302;18.736;2023-02-13T03:09:26;14.03;;;6.87;;
21438;SDS011;10880;50.302;18.736;2023-02-13T03:12:18;14.50;;;6.90;;
21438;SDS011;10880;50.302;18.736;2023-02-13T03:15:06;16.67;;;6.87;;
21438;SDS011;10880;50.302;18.736;2023-02-13T03:17:35;14.10;;;6.67;;
21438;SDS011;10880;50.302;18.736;2023-02-13T03:20:29;16.20;;;6.97;;
21438;SDS011;10880;50.302;18.736;2023-02-13T03:32:16;15.17;;;7.13;;
21438;SDS011;10880;50.302;18.736;2023-02-13T03:34:57;11.97;;;6.27;;
21438;SDS011;10880;50.302;18.736;2023-02-13T03:38:07;14.70;;;6.70;;
21438;SDS011;10880;50.302;18.736;2023-02-13T03:40:47;20.17;;;8.73;;
21438;SDS011;10880;50.302;18.736;2023-02-13T03:43:43;16.67;;;6.93;;
21438;SDS011;10880;50.302;18.736;2023-02-13T03:46:18;16.63;;;7.30;;
21438;SDS011;10880;50.302;18.736;2023-02-13T03:48:46;12.77;;;6.30;;
21438;SDS011;10880;50.302;18.736;2023-02-13T03:51:52;14.13;;;6.50;;
21438;SDS011;10880;50.302;18.736;2023-02-13T03:54:49;12.67;;;6.23;;
21438;SDS011;10880;50.302;18.736;2023-02-13T03:57:43;14.13;;;5.60;;
21438;SDS011;10880;50.302;18.736;2023-02-13T04:00:33;16.60;;;6.50;;
21438;SDS011;10880;50.302;18.736;2023-02-13T04:03:09;12.13;;;6.00;;
21438;SDS011;10880;50.302;18.736;2023-02-13T04:05:42;23.10;;;9.43;;
21438;SDS011;10880;50.302;18.736;2023-02-13T04:08:13;15.60;;;7.53;;
21438;SDS011;10880;50.302;18.736;2023-02-13T04:10:45;14.03;;;7.07;;
21438;SDS011;10880;50.302;18.736;2023-02-13T04:13:32;13.97;;;6.80;;
21438;SDS011;10880;50.302;18.736;2023-02-13T04:16:02;14.33;;;6.60;;
21438;SDS011;10880;50.302;18.736;2023-02-13T04:18:44;15.60;;;6.70;;
21438;SDS011;10880;50.302;18.736;2023-02-13T04:21:14;12.30;;;6.30;;
21438;SDS011;10880;50.302;18.736;2023-02-13T04:23:41;11.67;;;6.20;;
21438;SDS011;10880;50.302;18.736;2023-02-13T04:26:12;11.37;;;5.83;;
21438;SDS011;10880;50.302;18.736;2023-02-13T04:28:42;13.67;;;6.37;;
21438;SDS011;10880;50.302;18.736;2023-02-13T04:31:09;15.60;;;6.40;;
21438;SDS011;10880;50.302;18.736;2023-02-13T04:33:35;11.87;;;6.00;;
21438;SDS011;10880;50.302;18.736;2023-02-13T04:36:02;14.60;;;6.73;;
21438;SDS011;10880;50.302;18.736;2023-02-13T04:38:30;13.93;;;6.53;;
21438;SDS011;10880;50.302;18.736;2023-02-13T04:40:56;12.67;;;6.13;;
21438;SDS011;10880;50.302;18.736;2023-02-13T04:43:23;13.23;;;5.90;;
21438;SDS011;10880;50.302;18.736;2023-02-13T04:45:50;15.00;;;7.53;;
21438;SDS011;10880;50.302;18.736;2023-02-13T04:48:19;15.63;;;7.00;;
21438;SDS011;10880;50.302;18.736;2023-02-13T04:50:46;14.17;;;6.87;;
21438;SDS011;10880;50.302;18.736;2023-02-13T04:53:12;20.43;;;8.27;;
21438;SDS011;10880;50.302;18.736;2023-02-13T04:55:42;17.90;;;8.33;;
21438;SDS011;10880;50.302;18.736;2023-02-13T04:58:11;17.67;;;7.77;;
21438;SDS011;10880;50.302;18.736;2023-02-13T05:00:40;15.40;;;7.57;;
21438;SDS011;10880;50.302;18.736;2023-02-13T05:03:07;16.10;;;7.80;;
21438;SDS011;10880;50.302;18.736;2023-02-13T05:05:36;13.83;;;7.10;;
21438;SDS011;10880;50.302;18.736;2023-02-13T05:08:03;19.30;;;8.73;;
21438;SDS011;10880;50.302;18.736;2023-02-13T05:10:31;18.57;;;8.00;;
21438;SDS011;10880;50.302;18.736;2023-02-13T05:12:57;20.00;;;8.73;;
21438;SDS011;10880;50.302;18.736;2023-02-13T05:15:27;18.37;;;8.03;;
21438;SDS011;10880;50.302;18.736;2023-02-13T05:17:53;16.20;;;8.03;;
21438;SDS011;10880;50.302;18.736;2023-02-13T05:20:20;19.23;;;8.30;;
21438;SDS011;10880;50.302;18.736;2023-02-13T05:22:47;20.90;;;8.63;;
21438;SDS011;10880;50.302;18.736;2023-02-13T05:25:34;17.80;;;8.20;;
21438;SDS011;10880;50.302;18.736;2023-02-13T05:28:02;13.20;;;7.17;;
21438;SDS011;10880;50.302;18.736;2023-02-13T05:30:29;20.10;;;8.27;;
21438;SDS011;10880;50.302;18.736;2023-02-13T05:32:58;12.23;;;6.60;;
21438;SDS011;10880;50.302;18.736;2023-02-13T05:35:24;14.67;;;6.23;;
21438;SDS011;10880;50.302;18.736;2023-02-13T05:37:51;12.60;;;6.30;;
21438;SDS011;10880;50.302;18.736;2023-02-13T05:40:17;14.70;;;6.47;;
21438;SDS011;10880;50.302;18.736;2023-02-13T05:42:44;11.13;;;5.83;;
21438;SDS011;10880;50.302;18.736;2023-02-13T05:45:15;12.20;;;6.33;;
21438;SDS011;10880;50.302;18.736;2023-02-13T05:47:42;15.37;;;6.40;;
21438;SDS011;10880;50.302;18.736;2023-02-13T05:50:09;13.00;;;6.57;;
21438;SDS011;10880;50.302;18.736;2023-02-13T05:52:35;15.47;;;7.30;;
21438;SDS011;10880;50.302;18.736;2023-02-13T05:55:02;23.47;;;9.60;;
21438;SDS011;10880;50.302;18.736;2023-02-13T05:57:33;20.23;;;8.93;;
21438;SDS011;10880;50.302;18.736;2023-02-13T06:00:04;16.73;;;7.80;;
21438;SDS011;10880;50.302;18.736;2023-02-13T06:02:32;17.40;;;7.77;;
21438;SDS011;10880;50.302;18.736;2023-02-13T06:04:59;20.30;;;8.00;;
21438;SDS011;10880;50.302;18.736;2023-02-13T06:07:25;20.07;;;7.70;;
21438;SDS011;10880;50.302;18.736;2023-02-13T06:09:52;17.70;;;8.07;;
21438;SDS011;10880;50.302;18.736;2023-02-13T06:12:19;20.80;;;8.63;;
21438;SDS011;10880;50.302;18.736;2023-02-13T06:14:46;20.60;;;8.80;;
21438;SDS011;10880;50.302;18.736;2023-02-13T06:17:12;18.70;;;8.70;;
21438;SDS011;10880;50.302;18.736;2023-02-13T06:19:39;22.17;;;10.67;;
21438;SDS011;10880;50.302;18.736;2023-02-13T06:22:08;22.67;;;10.07;;
21438;SDS011;10880;50.302;18.736;2023-02-13T06:24:34;23.70;;;10.93;;
21438;SDS011;10880;50.302;18.736;2023-02-13T06:27:01;22.63;;;10.47;;
21438;SDS011;10880;50.302;18.736;2023-02-13T06:29:27;22.23;;;9.30;;
21438;SDS011;10880;50.302;18.736;2023-02-13T06:31:57;23.50;;;10.40;;
21438;SDS011;10880;50.302;18.736;2023-02-13T06:34:24;18.97;;;8.73;;
21438;SDS011;10880;50.302;18.736;2023-02-13T06:36:50;21.40;;;9.50;;
21438;SDS011;10880;50.302;18.736;2023-02-13T06:39:17;18.17;;;8.57;;
21438;SDS011;10880;50.302;18.736;2023-02-13T06:41:44;16.87;;;7.87;;
21438;SDS011;10880;50.302;18.736;2023-02-13T06:44:11;14.47;;;6.83;;
21438;SDS011;10880;50.302;18.736;2023-02-13T06:46:37;14.10;;;7.33;;
21438;SDS011;10880;50.302;18.736;2023-02-13T06:49:04;13.10;;;6.07;;
21438;SDS011;10880;50.302;18.736;2023-02-13T06:51:31;22.97;;;10.30;;
21438;SDS011;10880;50.302;18.736;2023-02-13T06:53:57;21.77;;;11.17;;
21438;SDS011;10880;50.302;18.736;2023-02-13T06:56:24;23.00;;;10.53;;
21438;SDS011;10880;50.302;18.736;2023-02-13T06:58:52;24.97;;;10.77;;
21438;SDS011;10880;50.302;18.736;2023-02-13T07:01:19;16.53;;;8.30;;
21438;SDS011;10880;50.302;18.736;2023-02-13T07:03:45;15.57;;;7.83;;
21438;SDS011;10880;50.302;18.736;2023-02-13T07:06:17;13.30;;;6.80;;
21438;SDS011;10880;50.302;18.736;2023-02-13T07:08:47;12.27;;;7.00;;
21438;SDS011;10880;50.302;18.736;2023-02-13T07:11:19;11.40;;;5.90;;
21438;SDS011;10880;50.302;18.736;2023-02-13T07:13:46;16.20;;;8.50;;
21438;SDS011;10880;50.302;18.736;2023-02-13T07:16:13;17.53;;;8.47;;
21438;SDS011;10880;50.302;18.736;2023-02-13T07:18:41;14.87;;;7.40;;
21438;SDS011;10880;50.302;18.736;2023-02-13T07:21:08;17.50;;;8.97;;
21438;SDS011;10880;50.302;18.736;2023-02-13T07:23:34;14.70;;;7.73;;
21438;SDS011;10880;50.302;18.736;2023-02-13T07:26:01;21.60;;;10.50;;
21438;SDS011;10880;50.302;18.736;2023-02-13T07:28:31;16.20;;;8.33;;
21438;SDS011;10880;50.302;18.736;2023-02-13T07:30:58;16.87;;;8.27;;
21438;SDS011;10880;50.302;18.736;2023-02-13T07:33:31;19.57;;;9.27;;
21438;SDS011;10880;50.302;18.736;2023-02-13T07:35:58;41.40;;;17.43;;
21438;SDS011;10880;50.302;18.736;2023-02-13T07:38:26;22.90;;;10.63;;
21438;SDS011;10880;50.302;18.736;2023-02-13T07:40:53;21.47;;;9.70;;
21438;SDS011;10880;50.302;18.736;2023-02-13T07:43:19;15.23;;;7.70;;
21438;SDS011;10880;50.302;18.736;2023-02-13T07:45:46;25.50;;;10.90;;
21438;SDS011;10880;50.302;18.736;2023-02-13T07:48:13;21.53;;;10.27;;
21438;SDS011;10880;50.302;18.736;2023-02-13T07:50:39;17.67;;;8.83;;
21438;SDS011;10880;50.302;18.736;2023-02-13T07:53:06;27.83;;;12.77;;
21438;SDS011;10880;50.302;18.736;2023-02-13T07:55:35;29.97;;;14.53;;
21438;SDS011;10880;50.302;18.736;2023-02-13T07:58:03;20.97;;;9.90;;
21438;SDS011;10880;50.302;18.736;2023-02-13T08:00:30;17.17;;;8.90;;
21438;SDS011;10880;50.302;18.736;2023-02-13T08:02:58;19.03;;;8.97;;
21438;SDS011;10880;50.302;18.736;2023-02-13T08:05:33;16.27;;;8.70;;
21438;SDS011;10880;50.302;18.736;2023-02-13T08:08:00;20.37;;;10.47;;
21438;SDS011;10880;50.302;18.736;2023-02-13T08:10:27;14.67;;;8.13;;
21438;SDS011;10880;50.302;18.736;2023-02-13T08:13:12;16.90;;;7.20;;
21438;SDS011;10880;50.302;18.736;2023-02-13T08:15:40;16.23;;;7.67;;
21438;SDS011;10880;50.302;18.736;2023-02-13T08:18:09;13.73;;;7.17;;
21438;SDS011;10880;50.302;18.736;2023-02-13T08:20:41;12.77;;;7.10;;
21438;SDS011;10880;50.302;18.736;2023-02-13T08:23:09;12.00;;;6.67;;
21438;SDS011;10880;50.302;18.736;2023-02-13T08:25:38;9.83;;;6.03;;
21438;SDS011;10880;50.302;18.736;2023-02-13T08:28:05;8.83;;;5.47;;
21438;SDS011;10880;50.302;18.736;2023-02-13T08:30:34;14.53;;;7.70;;
21438;SDS011;10880;50.302;18.736;2023-02-13T08:33:05;11.93;;;6.33;;
21438;SDS011;10880;50.302;18.736;2023-02-13T08:35:32;9.53;;;5.00;;
21438;SDS011;10880;50.302;18.736;2023-02-13T08:38:02;8.67;;;4.60;;
21438;SDS011;10880;50.302;18.736;2023-02-13T08:40:30;7.13;;;4.43;;
21438;SDS011;10880;50.302;18.736;2023-02-13T08:43:00;6.50;;;4.23;;
21438;SDS011;10880;50.302;18.736;2023-02-13T08:45:30;9.10;;;4.83;;
21438;SDS011;10880;50.302;18.736;2023-02-13T08:48:00;8.23;;;4.67;;
21438;SDS011;10880;50.302;18.736;2023-02-13T08:50:29;7.40;;;4.50;;
21438;SDS011;10880;50.302;18.736;2023-02-13T08:52:57;7.10;;;3.90;;
21438;SDS011;10880;50.302;18.736;2023-02-13T08:55:25;6.13;;;3.73;;
21438;SDS011;10880;50.302;18.736;2023-02-13T08:57:52;7.10;;;3.80;;
21438;SDS011;10880;50.302;18.736;2023-02-13T09:00:19;5.90;;;3.53;;
21438;SDS011;10880;50.302;18.736;2023-02-13T09:02:50;8.23;;;4.50;;
21438;SDS011;10880;50.302;18.736;2023-02-13T09:05:17;6.87;;;4.10;;
21438;SDS011;10880;50.302;18.736;2023-02-13T09:07:49;5.93;;;4.07;;
21438;SDS011;10880;50.302;18.736;2023-02-13T09:10:16;6.00;;;3.73;;
21438;SDS011;10880;50.302;18.736;2023-02-13T09:12:43;6.47;;;3.30;;
21438;SDS011;10880;50.302;18.736;2023-02-13T09:15:10;5.23;;;3.17;;
21438;SDS011;10880;50.302;18.736;2023-02-13T09:17:37;5.33;;;3.60;;
21438;SDS011;10880;50.302;18.736;2023-02-13T09:20:04;4.30;;;3.27;;
21438;SDS011;10880;50.302;18.736;2023-02-13T09:22:31;4.63;;;3.27;;
21438;SDS011;10880;50.302;18.736;2023-02-13T09:24:58;6.03;;;3.50;;
21438;SDS011;10880;50.302;18.736;2023-02-13T09:27:29;5.90;;;3.87;;
21438;SDS011;10880;50.302;18.736;2023-02-13T09:29:55;5.40;;;3.50;;
21438;SDS011;10880;50.302;18.736;2023-02-13T09:32:24;7.03;;;4.20;;
21438;SDS011;10880;50.302;18.736;2023-02-13T09:34:52;10.70;;;5.43;;
21438;SDS011;10880;50.302;18.736;2023-02-13T09:37:21;6.03;;;3.80;;
21438;SDS011;10880;50.302;18.736;2023-02-13T09:39:48;8.77;;;3.87;;
21438;SDS011;10880;50.302;18.736;2023-02-13T09:42:22;4.50;;;3.13;;
21438;SDS011;10880;50.302;18.736;2023-02-13T09:44:54;5.27;;;4.27;;
21438;SDS011;10880;50.302;18.736;2023-02-13T09:47:31;4.17;;;3.37;;
21438;SDS011;10880;50.302;18.736;2023-02-13T09:50:23;6.27;;;4.00;;
21438;SDS011;10880;50.302;18.736;2023-02-13T09:52:53;6.10;;;4.10;;
21438;SDS011;10880;50.302;18.736;2023-02-13T09:55:28;5.33;;;3.33;;
21438;SDS011;10880;50.302;18.736;2023-02-13T09:58:17;9.07;;;5.07;;
21438;SDS011;10880;50.302;18.736;2023-02-13T10:00:55;7.47;;;4.70;;
21438;SDS011;10880;50.302;18.736;2023-02-13T10:03:31;7.67;;;4.43;;
21438;SDS011;10880;50.302;18.736;2023-02-13T10:06:23;7.07;;;5.13;;
21438;SDS011;10880;50.302;18.736;2023-02-13T10:09:07;5.47;;;3.63;;
21438;SDS011;10880;50.302;18.736;2023-02-13T10:17:54;9.27;;;5.37;;
21438;SDS011;10880;50.302;18.736;2023-02-13T10:20:28;10.30;;;5.87;;
21438;SDS011;10880;50.302;18.736;2023-02-13T10:23:07;8.27;;;4.43;;
21438;SDS011;10880;50.302;18.736;2023-02-13T10:25:51;5.90;;;3.97;;
21438;SDS011;10880;50.302;18.736;2023-02-13T10:28:29;5.57;;;3.70;;
21438;SDS011;10880;50.302;18.736;2023-02-13T10:31:14;5.47;;;3.60;;
21438;SDS011;10880;50.302;18.736;2023-02-13T10:33:45;8.60;;;4.20;;
21438;SDS011;10880;50.302;18.736;2023-02-13T10:36:18;4.87;;;3.50;;
21438;SDS011;10880;50.302;18.736;2023-02-13T10:38:54;5.77;;;3.83;;
21438;SDS011;10880;50.302;18.736;2023-02-13T10:44:27;3.50;;;3.17;;
21438;SDS011;10880;50.302;18.736;2023-02-13T10:50:29;4.87;;;3.13;;
21438;SDS011;10880;50.302;18.736;2023-02-13T10:58:15;7.47;;;4.60;;
21438;SDS011;10880;50.302;18.736;2023-02-13T11:01:16;6.73;;;4.10;;
21438;SDS011;10880;50.302;18.736;2023-02-13T11:04:11;4.97;;;3.80;;
21438;SDS011;10880;50.302;18.736;2023-02-13T11:06:42;6.13;;;3.83;;
21438;SDS011;10880;50.302;18.736;2023-02-13T11:09:20;5.53;;;3.90;;
21438;SDS011;10880;50.302;18.736;2023-02-13T11:11:48;6.60;;;4.37;;
21438;SDS011;10880;50.302;18.736;2023-02-13T11:14:22;7.73;;;4.50;;
21438;SDS011;10880;50.302;18.736;2023-02-13T11:17:05;5.50;;;4.10;;
21438;SDS011;10880;50.302;18.736;2023-02-13T11:19:45;4.57;;;3.17;;
21438;SDS011;10880;50.302;18.736;2023-02-13T11:25:17;5.10;;;3.80;;
21438;SDS011;10880;50.302;18.736;2023-02-13T11:28:07;5.13;;;3.60;;
21438;SDS011;10880;50.302;18.736;2023-02-13T11:30:45;7.30;;;4.40;;
21438;SDS011;10880;50.302;18.736;2023-02-13T11:35:43;4.70;;;3.67;;
21438;SDS011;10880;50.302;18.736;2023-02-13T11:40:41;5.90;;;4.33;;
21438;SDS011;10880;50.302;18.736;2023-02-13T11:43:26;5.53;;;4.00;;
21438;SDS011;10880;50.302;18.736;2023-02-13T11:48:42;4.40;;;3.40;;
21438;SDS011;10880;50.302;18.736;2023-02-13T11:54:24;5.43;;;3.30;;
21438;SDS011;10880;50.302;18.736;2023-02-13T11:56:58;4.57;;;3.30;;
21438;SDS011;10880;50.302;18.736;2023-02-13T11:59:32;4.73;;;3.67;;
21438;SDS011;10880;50.302;18.736;2023-02-13T12:02:16;6.43;;;4.20;;
21438;SDS011;10880;50.302;18.736;2023-02-13T12:04:48;8.03;;;4.60;;
21438;SDS011;10880;50.302;18.736;2023-02-13T12:07:21;6.13;;;4.27;;
21438;SDS011;10880;50.302;18.736;2023-02-13T12:12:54;7.07;;;4.47;;
21438;SDS011;10880;50.302;18.736;2023-02-13T12:15:25;6.40;;;4.50;;
21438;SDS011;10880;50.302;18.736;2023-02-13T12:20:39;9.67;;;6.03;;
21438;SDS011;10880;50.302;18.736;2023-02-13T12:24:12;8.90;;;5.93;;
21438;SDS011;10880;50.302;18.736;2023-02-13T12:26:36;12.70;;;7.50;;
21438;SDS011;10880;50.302;18.736;2023-02-13T12:34:50;7.93;;;5.13;;
21438;SDS011;10880;50.302;18.736;2023-02-13T12:46:32;7.53;;;4.10;;
21438;SDS011;10880;50.302;18.736;2023-02-13T12:49:18;9.00;;;5.30;;
21438;SDS011;10880;50.302;18.736;2023-02-13T12:57:30;4.90;;;3.63;;
21438;SDS011;10880;50.302;18.736;2023-02-13T13:00:10;7.33;;;4.80;;
21438;SDS011;10880;50.302;18.736;2023-02-13T13:14:17;5.23;;;3.57;;
21438;SDS011;10880;50.302;18.736;2023-02-13T13:19:51;7.73;;;4.77;;
21438;SDS011;10880;50.302;18.736;2023-02-13T13:22:34;6.53;;;4.50;;
21438;SDS011;10880;50.302;18.736;2023-02-13T13:27:46;6.63;;;4.57;;
21438;SDS011;10880;50.302;18.736;2023-02-13T13:30:17;8.93;;;4.97;;
21438;SDS011;10880;50.302;18.736;2023-02-13T13:32:55;8.50;;;5.17;;
21438;SDS011;10880;50.302;18.736;2023-02-13T13:35:29;7.23;;;4.80;;
21438;SDS011;10880;50.302;18.736;2023-02-13T13:43:34;12.67;;;7.50;;
21438;SDS011;10880;50.302;18.736;2023-02-13T13:55:00;5.87;;;4.37;;
21438;SDS011;10880;50.302;18.736;2023-02-13T14:02:39;6.47;;;4.47;;
21438;SDS011;10880;50.302;18.736;2023-02-13T14:07:44;6.13;;;4.10;;
21438;SDS011;10880;50.302;18.736;2023-02-13T14:12:48;5.03;;;3.47;;
21438;SDS011;10880;50.302;18.736;2023-02-13T14:18:05;4.50;;;3.10;;
21438;SDS011;10880;50.302;18.736;2023-02-13T14:20:42;3.53;;;2.87;;
21438;SDS011;10880;50.302;18.736;2023-02-13T14:34:01;2.90;;;2.60;;
21438;SDS011;10880;50.302;18.736;2023-02-13T14:36:43;2.70;;;2.47;;
21438;SDS011;10880;50.302;18.736;2023-02-13T14:42:28;4.47;;;3.77;;
21438;SDS011;10880;50.302;18.736;2023-02-13T14:44:55;9.97;;;5.93;;
21438;SDS011;10880;50.302;18.736;2023-02-13T14:47:29;16.73;;;7.70;;
21438;SDS011;10880;50.302;18.736;2023-02-13T14:50:01;27.73;;;11.43;;
21438;SDS011;10880;50.302;18.736;2023-02-13T14:52:32;29.47;;;11.50;;
21438;SDS011;10880;50.302;18.736;2023-02-13T14:55:06;16.83;;;7.10;;
21438;SDS011;10880;50.302;18.736;2023-02-13T14:57:35;24.37;;;8.80;;
21438;SDS011;10880;50.302;18.736;2023-02-13T15:00:23;26.53;;;10.00;;
21438;SDS011;10880;50.302;18.736;2023-02-13T15:02:58;26.00;;;10.80;;
21438;SDS011;10880;50.302;18.736;2023-02-13T15:05:35;16.93;;;7.10;;
21438;SDS011;10880;50.302;18.736;2023-02-13T15:08:07;9.90;;;5.17;;
21438;SDS011;10880;50.302;18.736;2023-02-13T15:10:41;7.53;;;4.17;;
21438;SDS011;10880;50.302;18.736;2023-02-13T15:13:17;6.23;;;3.70;;
21438;SDS011;10880;50.302;18.736;2023-02-13T15:15:50;4.03;;;3.10;;
21438;SDS011;10880;50.302;18.736;2023-02-13T15:18:23;4.13;;;2.87;;
21438;SDS011;10880;50.302;18.736;2023-02-13T15:20:56;3.80;;;2.83;;
21438;SDS011;10880;50.302;18.736;2023-02-13T15:23:27;3.40;;;2.93;;
21438;SDS011;10880;50.302;18.736;2023-02-13T15:25:58;3.10;;;2.73;;
21438;SDS011;10880;50.302;18.736;2023-02-13T15:28:33;4.13;;;2.70;;
21438;SDS011;10880;50.302;18.736;2023-02-13T15:31:19;4.70;;;3.20;;
21438;SDS011;10880;50.302;18.736;2023-02-13T15:33:48;4.10;;;3.23;;
21438;SDS011;10880;50.302;18.736;2023-02-13T15:36:17;5.10;;;3.70;;
21438;SDS011;10880;50.302;18.736;2023-02-13T15:39:02;4.50;;;3.67;;
21438;SDS011;10880;50.302;18.736;2023-02-13T15:41:36;5.63;;;3.60;;
21438;SDS011;10880;50.302;18.736;2023-02-13T15:44:06;5.40;;;3.83;;
21438;SDS011;10880;50.302;18.736;2023-02-13T15:46:35;4.37;;;3.30;;
21438;SDS011;10880;50.302;18.736;2023-02-13T15:49:08;4.00;;;3.10;;
21438;SDS011;10880;50.302;18.736;2023-02-13T15:51:42;5.30;;;3.40;;
21438;SDS011;10880;50.302;18.736;2023-02-13T15:54:22;3.77;;;2.67;;
21438;SDS011;10880;50.302;18.736;2023-02-13T15:57:04;3.00;;;2.70;;
21438;SDS011;10880;50.302;18.736;2023-02-13T15:59:35;3.63;;;2.83;;
21438;SDS011;10880;50.302;18.736;2023-02-13T16:02:10;2.90;;;2.60;;
21438;SDS011;10880;50.302;18.736;2023-02-13T16:04:44;2.67;;;2.43;;
21438;SDS011;10880;50.302;18.736;2023-02-13T16:07:12;3.30;;;2.67;;
21438;SDS011;10880;50.302;18.736;2023-02-13T16:09:39;2.63;;;2.40;;
21438;SDS011;10880;50.302;18.736;2023-02-13T16:14:48;4.73;;;3.63;;
21438;SDS011;10880;50.302;18.736;2023-02-13T16:17:24;4.10;;;3.20;;
21438;SDS011;10880;50.302;18.736;2023-02-13T16:20:00;3.07;;;2.77;;
21438;SDS011;10880;50.302;18.736;2023-02-13T16:27:50;4.33;;;3.07;;
21438;SDS011;10880;50.302;18.736;2023-02-13T16:35:37;3.07;;;2.83;;
21438;SDS011;10880;50.302;18.736;2023-02-13T16:46:22;4.47;;;3.33;;
21438;SDS011;10880;50.302;18.736;2023-02-13T16:49:32;4.80;;;3.63;;
21438;SDS011;10880;50.302;18.736;2023-02-13T16:54:32;4.63;;;3.80;;
21438;SDS011;10880;50.302;18.736;2023-02-13T17:02:26;5.37;;;3.90;;
21438;SDS011;10880;50.302;18.736;2023-02-13T17:10:21;4.97;;;3.43;;
21438;SDS011;10880;50.302;18.736;2023-02-13T17:12:56;5.57;;;3.00;;
21438;SDS011;10880;50.302;18.736;2023-02-13T17:15:28;5.23;;;2.93;;
21438;SDS011;10880;50.302;18.736;2023-02-13T17:17:56;4.90;;;3.37;;
21438;SDS011;10880;50.302;18.736;2023-02-13T17:20:27;4.20;;;3.70;;
21438;SDS011;10880;50.302;18.736;2023-02-13T17:22:58;3.93;;;3.03;;
21438;SDS011;10880;50.302;18.736;2023-02-13T17:25:30;3.43;;;2.90;;
21438;SDS011;10880;50.302;18.736;2023-02-13T17:28:00;4.80;;;3.53;;
21438;SDS011;10880;50.302;18.736;2023-02-13T17:30:38;4.23;;;3.30;;
21438;SDS011;10880;50.302;18.736;2023-02-13T17:33:06;5.13;;;3.00;;
21438;SDS011;10880;50.302;18.736;2023-02-13T17:35:41;4.27;;;3.40;;
21438;SDS011;10880;50.302;18.736;2023-02-13T17:38:08;4.47;;;3.80;;
21438;SDS011;10880;50.302;18.736;2023-02-13T17:40:35;6.00;;;3.60;;
21438;SDS011;10880;50.302;18.736;2023-02-13T17:43:02;4.57;;;3.27;;
21438;SDS011;10880;50.302;18.736;2023-02-13T17:45:30;4.60;;;3.73;;
21438;SDS011;10880;50.302;18.736;2023-02-13T17:47:58;5.07;;;3.70;;
21438;SDS011;10880;50.302;18.736;2023-02-13T17:50:27;5.50;;;4.07;;
21438;SDS011;10880;50.302;18.736;2023-02-13T17:52:55;5.33;;;3.90;;
21438;SDS011;10880;50.302;18.736;2023-02-13T17:55:28;6.20;;;3.73;;
21438;SDS011;10880;50.302;18.736;2023-02-13T17:57:57;5.37;;;4.07;;
21438;SDS011;10880;50.302;18.736;2023-02-13T18:00:29;5.73;;;3.93;;